sensor_id;sensor_type;location;lat;lon;timestamp;temperature;humidity
25342;DHT22;13298;48.792;9.154;2023-02-18T00:00:14;11.20;99.90
25342;DHT22;13298;48.792;9.154;2023-02-18T00:02:42;11.20;99.90
25342;DHT22;13298;48.792;9.154;2023-02-18T00:05:08;11.20;99.90
25342;DHT22;13298;48.792;9.154;2023-02-18T00:07:35;11.10;99.90
25342;DHT22;13298;48.792;9.154;2023-02-18T00:10:02;11.10;99.90
25342;DHT22;13298;48.792;9.154;2023-02-18T00:12:29;11.10;99.90
25342;DHT22;13298;48.792;9.154;2023-02-18T00:14:56;11.10;99.90
25342;DHT22;13298;48.792;9.154;2023-02-18T00:17:22;11.10;99.90
25342;DHT22;13298;48.792;9.154;2023-02-18T00:19:48;11.10;99.90
25342;DHT22;13298;48.792;9.154;2023-02-18T00:22:14;11.10;99.90
25342;DHT22;13298;48.792;9.154;2023-02-18T00:24:39;11.10;99.90
25342;DHT22;13298;48.792;9.154;2023-02-18T00:27:05;11.10;99.90
25342;DHT22;13298;48.792;9.154;2023-02-18T00:29:31;11.10;99.90
25342;DHT22;13298;48.792;9.154;2023-02-18T00:31:57;11.10;99.90
25342;DHT22;13298;48.792;9.154;2023-02-18T00:34:23;11.10;99.90
25342;DHT22;13298;48.792;9.154;2023-02-18T00:36:49;11.10;99.90
25342;DHT22;13298;48.792;9.154;2023-02-18T00:39:14;11.10;99.90
25342;DHT22;13298;48.792;9.154;2023-02-18T00:41:41;11.10;99.90
25342;DHT22;13298;48.792;9.154;2023-02-18T00:44:07;11.10;99.90
25342;DHT22;13298;48.792;9.154;2023-02-18T00:46:34;11.00;99.90
25342;DHT22;13298;48.792;9.154;2023-02-18T00:49:00;11.00;99.90
25342;DHT22;13298;48.792;9.154;2023-02-18T00:51:26;11.00;99.90
25342;DHT22;13298;48.792;9.154;2023-02-18T00:53:52;11.00;99.90
25342;DHT22;13298;48.792;9.154;2023-02-18T00:56:18;11.00;99.90
25342;DHT22;13298;48.792;9.154;2023-02-18T00:58:44;11.00;99.90
25342;DHT22;13298;48.792;9.154;2023-02-18T01:01:10;11.00;99.90
25342;DHT22;13298;48.792;9.154;2023-02-18T01:03:39;11.00;99.90
25342;DHT22;13298;48.792;9.154;2023-02-18T01:06:06;11.00;99.90
25342;DHT22;13298;48.792;9.154;2023-02-18T01:08:33;11.00;99.90
25342;DHT22;13298;48.792;9.154;2023-02-18T01:11:00;11.00;99.90
25342;DHT22;13298;48.792;9.154;2023-02-18T01:13:27;11.00;99.90
25342;DHT22;13298;48.792;9.154;2023-02-18T01:15:53;11.00;99.90
25342;DHT22;13298;48.792;9.154;2023-02-18T01:18:19;11.00;99.90
25342;DHT22;13298;48.792;9.154;2023-02-18T01:20:46;11.00;99.90
25342;DHT22;13298;48.792;9.154;2023-02-18T01:23:13;10.90;99.90
25342;DHT22;13298;48.792;9.154;2023-02-18T01:25:40;10.90;99.90
25342;DHT22;13298;48.792;9.154;2023-02-18T01:28:07;10.80;99.90
25342;DHT22;13298;48.792;9.154;2023-02-18T01:30:33;10.70;99.90
25342;DHT22;13298;48.792;9.154;2023-02-18T01:32:59;10.60;99.90
25342;DHT22;13298;48.792;9.154;2023-02-18T01:35:25;10.50;99.90
25342;DHT22;13298;48.792;9.154;2023-02-18T01:37:51;10.40;99.90
25342;DHT22;13298;48.792;9.154;2023-02-18T01:40:20;10.40;99.90
25342;DHT22;13298;48.792;9.154;2023-02-18T01:42:48;10.30;99.90
25342;DHT22;13298;48.792;9.154;2023-02-18T01:48:03;10.20;99.90
25342;DHT22;13298;48.792;9.154;2023-02-18T01:50:31;10.10;99.90
25342;DHT22;13298;48.792;9.154;2023-02-18T01:52:58;10.10;99.90
25342;DHT22;13298;48.792;9.154;2023-02-18T01:55:24;10.10;99.90
25342;DHT22;13298;48.792;9.154;2023-02-18T01:57:51;10.20;99.90
25342;DHT22;13298;48.792;9.154;2023-02-18T02:00:18;10.30;99.90
25342;DHT22;13298;48.792;9.154;2023-02-18T02:02:50;10.40;99.90
25342;DHT22;13298;48.792;9.154;2023-02-18T02:05:19;10.50;99.90
25342;DHT22;13298;48.792;9.154;2023-02-18T02:07:46;10.60;99.90
25342;DHT22;13298;48.792;9.154;2023-02-18T02:10:14;10.60;99.90
25342;DHT22;13298;48.792;9.154;2023-02-18T02:13:06;10.60;99.90
25342;DHT22;13298;48.792;9.154;2023-02-18T02:15:57;10.60;99.90
25342;DHT22;13298;48.792;9.154;2023-02-18T02:19:12;10.60;99.90
25342;DHT22;13298;48.792;9.154;2023-02-18T02:22:05;10.60;99.90
25342;DHT22;13298;48.792;9.154;2023-02-18T02:27:41;10.60;99.90
25342;DHT22;13298;48.792;9.154;2023-02-18T02:33:06;10.70;99.90
25342;DHT22;13298;48.792;9.154;2023-02-18T02:35:51;10.70;99.90
25342;DHT22;13298;48.792;9.154;2023-02-18T02:38:32;10.70;99.90
25342;DHT22;13298;48.792;9.154;2023-02-18T02:41:29;10.80;99.90
25342;DHT22;13298;48.792;9.154;2023-02-18T02:44:06;10.80;99.90
25342;DHT22;13298;48.792;9.154;2023-02-18T02:46:44;10.80;99.90
25342;DHT22;13298;48.792;9.154;2023-02-18T02:52:09;10.80;99.90
25342;DHT22;13298;48.792;9.154;2023-02-18T02:54:43;10.80;99.90
25342;DHT22;13298;48.792;9.154;2023-02-18T02:59:58;10.80;99.90
25342;DHT22;13298;48.792;9.154;2023-02-18T03:05:56;10.80;99.90
25342;DHT22;13298;48.792;9.154;2023-02-18T03:09:08;10.80;99.90
25342;DHT22;13298;48.792;9.154;2023-02-18T03:14:58;10.70;99.90
25342;DHT22;13298;48.792;9.154;2023-02-18T03:17:52;10.70;99.90
25342;DHT22;13298;48.792;9.154;2023-02-18T03:20:30;10.60;99.90
25342;DHT22;13298;48.792;9.154;2023-02-18T03:23:05;10.60;99.90
25342;DHT22;13298;48.792;9.154;2023-02-18T03:25:33;10.50;99.90
25342;DHT22;13298;48.792;9.154;2023-02-18T03:28:14;10.50;99.90
25342;DHT22;13298;48.792;9.154;2023-02-18T03:30:43;10.40;99.90
25342;DHT22;13298;48.792;9.154;2023-02-18T03:33:17;10.30;99.90
25342;DHT22;13298;48.792;9.154;2023-02-18T03:35:48;10.30;99.90
25342;DHT22;13298;48.792;9.154;2023-02-18T03:38:23;10.20;99.90
25342;DHT22;13298;48.792;9.154;2023-02-18T03:40:54;10.10;99.90
25342;DHT22;13298;48.792;9.154;2023-02-18T03:43:20;9.90;99.90
25342;DHT22;13298;48.792;9.154;2023-02-18T03:45:46;9.90;99.90
25342;DHT22;13298;48.792;9.154;2023-02-18T03:48:12;9.80;99.90
25342;DHT22;13298;48.792;9.154;2023-02-18T03:50:38;9.70;99.90
25342;DHT22;13298;48.792;9.154;2023-02-18T03:53:03;9.60;99.90
25342;DHT22;13298;48.792;9.154;2023-02-18T03:55:29;9.60;99.90
25342;DHT22;13298;48.792;9.154;2023-02-18T03:57:55;9.50;99.90
25342;DHT22;13298;48.792;9.154;2023-02-18T04:00:21;9.40;99.90
25342;DHT22;13298;48.792;9.154;2023-02-18T04:02:46;9.40;99.90
25342;DHT22;13298;48.792;9.154;2023-02-18T04:05:12;9.30;99.90
25342;DHT22;13298;48.792;9.154;2023-02-18T04:07:38;9.30;99.90
25342;DHT22;13298;48.792;9.154;2023-02-18T04:10:05;9.40;99.90
25342;DHT22;13298;48.792;9.154;2023-02-18T04:12:31;9.50;99.90
25342;DHT22;13298;48.792;9.154;2023-02-18T04:14:57;9.60;99.90
25342;DHT22;13298;48.792;9.154;2023-02-18T04:17:22;9.70;99.90
25342;DHT22;13298;48.792;9.154;2023-02-18T04:19:48;9.80;99.90
25342;DHT22;13298;48.792;9.154;2023-02-18T04:22:14;9.90;99.90
25342;DHT22;13298;48.792;9.154;2023-02-18T04:24:40;10.00;99.90
25342;DHT22;13298;48.792;9.154;2023-02-18T04:27:05;10.00;99.90
25342;DHT22;13298;48.792;9.154;2023-02-18T04:29:31;10.00;99.90
25342;DHT22;13298;48.792;9.154;2023-02-18T04:31:57;9.90;99.90
25342;DHT22;13298;48.792;9.154;2023-02-18T04:34:22;9.80;99.90
25342;DHT22;13298;48.792;9.154;2023-02-18T04:36:48;9.70;99.90
25342;DHT22;13298;48.792;9.154;2023-02-18T04:39:14;9.60;99.90
25342;DHT22;13298;48.792;9.154;2023-02-18T04:41:39;9.50;99.90
25342;DHT22;13298;48.792;9.154;2023-02-18T04:44:05;9.40;99.90
25342;DHT22;13298;48.792;9.154;2023-02-18T04:46:31;9.40;99.90
25342;DHT22;13298;48.792;9.154;2023-02-18T04:48:57;9.40;99.90
25342;DHT22;13298;48.792;9.154;2023-02-18T04:51:22;9.40;99.90
25342;DHT22;13298;48.792;9.154;2023-02-18T04:53:48;9.30;99.90
25342;DHT22;13298;48.792;9.154;2023-02-18T04:56:14;9.30;99.90
25342;DHT22;13298;48.792;9.154;2023-02-18T04:58:40;9.30;99.90
25342;DHT22;13298;48.792;9.154;2023-02-18T05:01:05;9.20;99.90
25342;DHT22;13298;48.792;9.154;2023-02-18T05:03:31;9.20;99.90
25342;DHT22;13298;48.792;9.154;2023-02-18T05:05:57;9.10;99.90
25342;DHT22;13298;48.792;9.154;2023-02-18T05:08:24;9.00;99.90
25342;DHT22;13298;48.792;9.154;2023-02-18T05:10:49;9.10;99.90
25342;DHT22;13298;48.792;9.154;2023-02-18T05:13:15;9.00;99.90
25342;DHT22;13298;48.792;9.154;2023-02-18T05:15:41;8.90;99.90
25342;DHT22;13298;48.792;9.154;2023-02-18T05:18:07;8.90;99.90
25342;DHT22;13298;48.792;9.154;2023-02-18T05:20:32;8.90;99.90
25342;DHT22;13298;48.792;9.154;2023-02-18T05:22:58;9.00;99.90
25342;DHT22;13298;48.792;9.154;2023-02-18T05:25:24;9.00;99.90
25342;DHT22;13298;48.792;9.154;2023-02-18T05:27:50;9.00;99.90
25342;DHT22;13298;48.792;9.154;2023-02-18T05:30:15;9.00;99.90
25342;DHT22;13298;48.792;9.154;2023-02-18T05:32:41;9.10;99.90
25342;DHT22;13298;48.792;9.154;2023-02-18T05:35:07;9.10;99.90
25342;DHT22;13298;48.792;9.154;2023-02-18T05:37:33;9.10;99.90
25342;DHT22;13298;48.792;9.154;2023-02-18T05:39:59;9.10;99.90
25342;DHT22;13298;48.792;9.154;2023-02-18T05:42:24;9.10;99.90
25342;DHT22;13298;48.792;9.154;2023-02-18T05:44:50;9.00;99.90
25342;DHT22;13298;48.792;9.154;2023-02-18T05:47:16;9.00;99.90
25342;DHT22;13298;48.792;9.154;2023-02-18T05:49:42;8.90;99.90
25342;DHT22;13298;48.792;9.154;2023-02-18T05:52:09;8.90;99.90
25342;DHT22;13298;48.792;9.154;2023-02-18T05:54:36;8.90;99.90
25342;DHT22;13298;48.792;9.154;2023-02-18T05:57:02;8.90;99.90
25342;DHT22;13298;48.792;9.154;2023-02-18T05:59:28;9.00;99.90
25342;DHT22;13298;48.792;9.154;2023-02-18T06:01:54;9.00;99.90
25342;DHT22;13298;48.792;9.154;2023-02-18T06:04:20;9.10;99.90
25342;DHT22;13298;48.792;9.154;2023-02-18T06:06:46;9.10;99.90
25342;DHT22;13298;48.792;9.154;2023-02-18T06:09:12;9.20;99.90
25342;DHT22;13298;48.792;9.154;2023-02-18T06:11:37;9.10;99.90
25342;DHT22;13298;48.792;9.154;2023-02-18T06:14:03;9.20;99.90
25342;DHT22;13298;48.792;9.154;2023-02-18T06:16:30;9.20;99.90
25342;DHT22;13298;48.792;9.154;2023-02-18T06:18:55;9.20;99.90
25342;DHT22;13298;48.792;9.154;2023-02-18T06:21:21;9.20;99.90
25342;DHT22;13298;48.792;9.154;2023-02-18T06:23:47;9.20;99.90
25342;DHT22;13298;48.792;9.154;2023-02-18T06:26:12;9.20;99.90
25342;DHT22;13298;48.792;9.154;2023-02-18T06:28:38;9.20;99.90
25342;DHT22;13298;48.792;9.154;2023-02-18T06:31:04;9.20;99.90
25342;DHT22;13298;48.792;9.154;2023-02-18T06:33:30;9.20;99.90
25342;DHT22;13298;48.792;9.154;2023-02-18T06:36:03;9.20;99.90
25342;DHT22;13298;48.792;9.154;2023-02-18T06:38:32;9.20;99.90
25342;DHT22;13298;48.792;9.154;2023-02-18T06:40:59;9.20;99.90
25342;DHT22;13298;48.792;9.154;2023-02-18T06:43:24;9.30;99.90
25342;DHT22;13298;48.792;9.154;2023-02-18T06:45:51;9.30;99.90
25342;DHT22;13298;48.792;9.154;2023-02-18T06:48:17;9.40;99.90
25342;DHT22;13298;48.792;9.154;2023-02-18T06:50:43;9.40;99.90
25342;DHT22;13298;48.792;9.154;2023-02-18T06:53:10;9.50;99.90
25342;DHT22;13298;48.792;9.154;2023-02-18T06:55:36;9.50;99.90
25342;DHT22;13298;48.792;9.154;2023-02-18T06:58:02;9.60;99.90
25342;DHT22;13298;48.792;9.154;2023-02-18T07:00:28;9.60;99.90
25342;DHT22;13298;48.792;9.154;2023-02-18T07:02:53;9.70;99.90
25342;DHT22;13298;48.792;9.154;2023-02-18T07:05:19;9.80;99.90
25342;DHT22;13298;48.792;9.154;2023-02-18T07:07:45;9.80;99.90
25342;DHT22;13298;48.792;9.154;2023-02-18T07:10:10;9.90;99.90
25342;DHT22;13298;48.792;9.154;2023-02-18T07:12:36;9.90;99.90
25342;DHT22;13298;48.792;9.154;2023-02-18T07:15:02;10.00;99.90
25342;DHT22;13298;48.792;9.154;2023-02-18T07:17:28;10.00;99.90
25342;DHT22;13298;48.792;9.154;2023-02-18T07:19:54;10.10;99.90
25342;DHT22;13298;48.792;9.154;2023-02-18T07:22:21;10.20;99.90
25342;DHT22;13298;48.792;9.154;2023-02-18T07:24:53;10.20;99.90
25342;DHT22;13298;48.792;9.154;2023-02-18T07:27:20;10.20;99.90
25342;DHT22;13298;48.792;9.154;2023-02-18T07:29:46;10.30;99.90
25342;DHT22;13298;48.792;9.154;2023-02-18T07:32:13;10.40;99.90
25342;DHT22;13298;48.792;9.154;2023-02-18T07:34:41;10.40;99.90
25342;DHT22;13298;48.792;9.154;2023-02-18T07:37:07;10.50;99.90
25342;DHT22;13298;48.792;9.154;2023-02-18T07:39:41;10.60;99.90
25342;DHT22;13298;48.792;9.154;2023-02-18T07:42:07;10.60;99.90
25342;DHT22;13298;48.792;9.154;2023-02-18T07:44:34;10.70;99.90
25342;DHT22;13298;48.792;9.154;2023-02-18T07:47:00;10.80;99.90
25342;DHT22;13298;48.792;9.154;2023-02-18T07:49:27;10.80;99.90
25342;DHT22;13298;48.792;9.154;2023-02-18T07:51:53;11.00;99.90
25342;DHT22;13298;48.792;9.154;2023-02-18T07:54:18;11.10;99.90
25342;DHT22;13298;48.792;9.154;2023-02-18T07:56:44;11.20;99.90
25342;DHT22;13298;48.792;9.154;2023-02-18T07:59:11;11.30;99.90
25342;DHT22;13298;48.792;9.154;2023-02-18T08:01:37;11.50;99.90
25342;DHT22;13298;48.792;9.154;2023-02-18T08:04:03;11.70;99.90
25342;DHT22;13298;48.792;9.154;2023-02-18T08:06:36;11.80;99.90
25342;DHT22;13298;48.792;9.154;2023-02-18T08:09:03;11.80;99.90
25342;DHT22;13298;48.792;9.154;2023-02-18T08:11:29;11.90;99.90
25342;DHT22;13298;48.792;9.154;2023-02-18T08:13:55;11.90;99.90
25342;DHT22;13298;48.792;9.154;2023-02-18T08:16:21;11.90;99.90
25342;DHT22;13298;48.792;9.154;2023-02-18T08:18:49;11.80;99.90
25342;DHT22;13298;48.792;9.154;2023-02-18T08:21:18;11.80;99.90
25342;DHT22;13298;48.792;9.154;2023-02-18T08:23:45;11.80;99.90
25342;DHT22;13298;48.792;9.154;2023-02-18T08:26:11;11.90;99.90
25342;DHT22;13298;48.792;9.154;2023-02-18T08:28:37;12.00;99.90
25342;DHT22;13298;48.792;9.154;2023-02-18T08:31:03;12.10;99.90
25342;DHT22;13298;48.792;9.154;2023-02-18T08:33:29;12.20;99.90
25342;DHT22;13298;48.792;9.154;2023-02-18T08:35:56;12.30;99.90
25342;DHT22;13298;48.792;9.154;2023-02-18T08:38:23;12.30;99.90
25342;DHT22;13298;48.792;9.154;2023-02-18T08:40:48;12.30;99.90
25342;DHT22;13298;48.792;9.154;2023-02-18T08:43:15;12.30;99.90
25342;DHT22;13298;48.792;9.154;2023-02-18T08:45:43;12.40;99.90
25342;DHT22;13298;48.792;9.154;2023-02-18T08:48:10;12.40;99.90
25342;DHT22;13298;48.792;9.154;2023-02-18T08:50:38;12.50;99.90
25342;DHT22;13298;48.792;9.154;2023-02-18T08:53:04;12.50;99.90
25342;DHT22;13298;48.792;9.154;2023-02-18T08:55:31;12.50;99.90
25342;DHT22;13298;48.792;9.154;2023-02-18T08:57:57;12.60;99.90
25342;DHT22;13298;48.792;9.154;2023-02-18T09:00:24;12.60;99.90
25342;DHT22;13298;48.792;9.154;2023-02-18T09:02:49;12.70;99.90
25342;DHT22;13298;48.792;9.154;2023-02-18T09:05:15;12.80;99.90
25342;DHT22;13298;48.792;9.154;2023-02-18T09:07:41;12.90;99.90
25342;DHT22;13298;48.792;9.154;2023-02-18T09:10:08;13.00;99.90
25342;DHT22;13298;48.792;9.154;2023-02-18T09:12:34;13.10;99.90
25342;DHT22;13298;48.792;9.154;2023-02-18T09:15:00;13.10;99.90
25342;DHT22;13298;48.792;9.154;2023-02-18T09:17:26;13.20;99.90
25342;DHT22;13298;48.792;9.154;2023-02-18T09:19:52;13.20;99.90
25342;DHT22;13298;48.792;9.154;2023-02-18T09:22:18;13.40;99.90
25342;DHT22;13298;48.792;9.154;2023-02-18T09:24:44;13.40;99.90
25342;DHT22;13298;48.792;9.154;2023-02-18T09:27:10;13.50;99.90
25342;DHT22;13298;48.792;9.154;2023-02-18T09:29:39;13.60;99.90
25342;DHT22;13298;48.792;9.154;2023-02-18T09:32:06;13.70;99.90
25342;DHT22;13298;48.792;9.154;2023-02-18T09:34:33;13.70;99.90
25342;DHT22;13298;48.792;9.154;2023-02-18T09:36:59;13.70;99.90
25342;DHT22;13298;48.792;9.154;2023-02-18T09:39:25;13.70;99.90
25342;DHT22;13298;48.792;9.154;2023-02-18T09:41:53;13.70;99.90
25342;DHT22;13298;48.792;9.154;2023-02-18T09:44:25;13.60;99.90
25342;DHT22;13298;48.792;9.154;2023-02-18T09:47:13;13.70;99.90
25342;DHT22;13298;48.792;9.154;2023-02-18T09:49:44;13.80;99.90
25342;DHT22;13298;48.792;9.154;2023-02-18T09:52:20;13.80;99.90
25342;DHT22;13298;48.792;9.154;2023-02-18T09:54:49;13.90;99.90
25342;DHT22;13298;48.792;9.154;2023-02-18T09:57:25;13.90;99.90
25342;DHT22;13298;48.792;9.154;2023-02-18T09:59:59;14.00;99.90
25342;DHT22;13298;48.792;9.154;2023-02-18T10:02:29;14.00;99.90
25342;DHT22;13298;48.792;9.154;2023-02-18T10:04:56;14.10;99.90
25342;DHT22;13298;48.792;9.154;2023-02-18T10:07:31;14.10;99.90
25342;DHT22;13298;48.792;9.154;2023-02-18T10:10:07;14.10;99.90
25342;DHT22;13298;48.792;9.154;2023-02-18T10:12:47;14.10;99.90
25342;DHT22;13298;48.792;9.154;2023-02-18T10:15:22;14.00;99.90
25342;DHT22;13298;48.792;9.154;2023-02-18T10:17:55;14.00;99.90
25342;DHT22;13298;48.792;9.154;2023-02-18T10:20:23;13.90;99.90
25342;DHT22;13298;48.792;9.154;2023-02-18T10:22:53;13.90;99.90
25342;DHT22;13298;48.792;9.154;2023-02-18T10:25:22;13.90;99.90
25342;DHT22;13298;48.792;9.154;2023-02-18T10:27:51;14.00;99.90
25342;DHT22;13298;48.792;9.154;2023-02-18T10:32:54;14.20;99.90
25342;DHT22;13298;48.792;9.154;2023-02-18T10:35:30;14.30;99.90
25342;DHT22;13298;48.792;9.154;2023-02-18T10:38:33;14.40;99.90
25342;DHT22;13298;48.792;9.154;2023-02-18T10:41:24;14.50;99.90
25342;DHT22;13298;48.792;9.154;2023-02-18T10:44:22;14.50;99.90
25342;DHT22;13298;48.792;9.154;2023-02-18T10:46:59;14.60;99.90
25342;DHT22;13298;48.792;9.154;2023-02-18T10:52:32;14.60;99.90
25342;DHT22;13298;48.792;9.154;2023-02-18T10:55:04;14.50;99.90
25342;DHT22;13298;48.792;9.154;2023-02-18T10:57:33;14.50;99.90
25342;DHT22;13298;48.792;9.154;2023-02-18T11:00:16;14.60;99.90
25342;DHT22;13298;48.792;9.154;2023-02-18T11:02:45;14.60;99.90
25342;DHT22;13298;48.792;9.154;2023-02-18T11:05:18;14.60;99.90
25342;DHT22;13298;48.792;9.154;2023-02-18T11:07:50;14.70;99.90
25342;DHT22;13298;48.792;9.154;2023-02-18T11:10:21;14.70;99.90
25342;DHT22;13298;48.792;9.154;2023-02-18T11:12:52;14.80;99.90
25342;DHT22;13298;48.792;9.154;2023-02-18T11:15:23;14.80;99.90
25342;DHT22;13298;48.792;9.154;2023-02-18T11:17:55;14.90;99.90
25342;DHT22;13298;48.792;9.154;2023-02-18T11:20:27;15.00;99.90
25342;DHT22;13298;48.792;9.154;2023-02-18T11:23:12;15.00;99.90
25342;DHT22;13298;48.792;9.154;2023-02-18T11:25:54;14.90;99.90
25342;DHT22;13298;48.792;9.154;2023-02-18T11:28:51;14.90;99.90
25342;DHT22;13298;48.792;9.154;2023-02-18T11:31:25;14.80;99.90
25342;DHT22;13298;48.792;9.154;2023-02-18T11:33:56;14.80;99.90
25342;DHT22;13298;48.792;9.154;2023-02-18T11:36:27;14.90;99.90
25342;DHT22;13298;48.792;9.154;2023-02-18T11:43:59;15.00;99.90
25342;DHT22;13298;48.792;9.154;2023-02-18T11:46:26;15.10;99.90
25342;DHT22;13298;48.792;9.154;2023-02-18T11:48:53;15.10;99.90
25342;DHT22;13298;48.792;9.154;2023-02-18T11:51:29;15.00;99.90
25342;DHT22;13298;48.792;9.154;2023-02-18T11:54:19;15.10;99.90
25342;DHT22;13298;48.792;9.154;2023-02-18T11:56:56;15.20;99.90
25342;DHT22;13298;48.792;9.154;2023-02-18T11:59:36;15.20;99.90
25342;DHT22;13298;48.792;9.154;2023-02-18T12:04:49;15.00;99.90
25342;DHT22;13298;48.792;9.154;2023-02-18T12:10:37;15.10;99.90
25342;DHT22;13298;48.792;9.154;2023-02-18T12:13:18;15.00;99.90
25342;DHT22;13298;48.792;9.154;2023-02-18T12:16:03;15.00;99.90
25342;DHT22;13298;48.792;9.154;2023-02-18T12:19:03;15.00;99.90
25342;DHT22;13298;48.792;9.154;2023-02-18T12:22:04;15.10;99.90
25342;DHT22;13298;48.792;9.154;2023-02-18T12:44:46;14.80;99.90
25342;DHT22;13298;48.792;9.154;2023-02-18T12:47:34;14.80;99.90
25342;DHT22;13298;48.792;9.154;2023-02-18T12:50:39;14.80;99.90
25342;DHT22;13298;48.792;9.154;2023-02-18T12:56:40;14.70;99.90
25342;DHT22;13298;48.792;9.154;2023-02-18T13:10:41;14.30;99.90
25342;DHT22;13298;48.792;9.154;2023-02-18T13:13:25;14.20;99.90
25342;DHT22;13298;48.792;9.154;2023-02-18T13:16:00;14.20;99.90
25342;DHT22;13298;48.792;9.154;2023-02-18T13:18:35;14.20;99.90
25342;DHT22;13298;48.792;9.154;2023-02-18T13:21:12;14.00;99.90
25342;DHT22;13298;48.792;9.154;2023-02-18T13:23:49;13.90;99.90
25342;DHT22;13298;48.792;9.154;2023-02-18T13:26:18;13.80;99.90
25342;DHT22;13298;48.792;9.154;2023-02-18T13:29:15;13.80;99.90
25342;DHT22;13298;48.792;9.154;2023-02-18T13:34:29;13.70;99.90
25342;DHT22;13298;48.792;9.154;2023-02-18T13:37:24;13.60;99.90
25342;DHT22;13298;48.792;9.154;2023-02-18T13:39:56;13.60;99.90
25342;DHT22;13298;48.792;9.154;2023-02-18T13:52:56;13.70;99.90
25342;DHT22;13298;48.792;9.154;2023-02-18T13:58:51;13.90;99.90
25342;DHT22;13298;48.792;9.154;2023-02-18T14:01:44;13.80;99.90
25342;DHT22;13298;48.792;9.154;2023-02-18T14:10:25;13.90;99.90
25342;DHT22;13298;48.792;9.154;2023-02-18T14:25:54;14.20;99.90
25342;DHT22;13298;48.792;9.154;2023-02-18T14:34:44;14.30;99.90
25342;DHT22;13298;48.792;9.154;2023-02-18T14:40:29;14.20;99.90
25342;DHT22;13298;48.792;9.154;2023-02-18T14:46:17;14.20;99.90
25342;DHT22;13298;48.792;9.154;2023-02-18T14:48:54;14.30;99.90
25342;DHT22;13298;48.792;9.154;2023-02-18T14:51:39;14.40;99.90
25342;DHT22;13298;48.792;9.154;2023-02-18T14:54:11;14.50;99.90
25342;DHT22;13298;48.792;9.154;2023-02-18T14:56:52;14.60;99.90
25342;DHT22;13298;48.792;9.154;2023-02-18T14:59:36;14.40;99.90
25342;DHT22;13298;48.792;9.154;2023-02-18T15:02:21;14.30;99.90
25342;DHT22;13298;48.792;9.154;2023-02-18T15:04:49;14.20;99.90
25342;DHT22;13298;48.792;9.154;2023-02-18T15:07:20;14.10;99.90
25342;DHT22;13298;48.792;9.154;2023-02-18T15:09:48;14.10;99.90
25342;DHT22;13298;48.792;9.154;2023-02-18T15:12:19;14.00;99.90
25342;DHT22;13298;48.792;9.154;2023-02-18T15:14:48;14.00;99.90
25342;DHT22;13298;48.792;9.154;2023-02-18T15:17:21;14.10;99.90
25342;DHT22;13298;48.792;9.154;2023-02-18T15:19:55;14.10;99.90
25342;DHT22;13298;48.792;9.154;2023-02-18T15:22:26;14.00;99.90
25342;DHT22;13298;48.792;9.154;2023-02-18T15:24:55;13.90;99.90
25342;DHT22;13298;48.792;9.154;2023-02-18T15:27:30;13.90;99.90
25342;DHT22;13298;48.792;9.154;2023-02-18T15:30:23;13.70;99.90
25342;DHT22;13298;48.792;9.154;2023-02-18T15:32:56;13.60;99.90
25342;DHT22;13298;48.792;9.154;2023-02-18T15:35:27;13.60;99.90
25342;DHT22;13298;48.792;9.154;2023-02-18T15:37:56;13.50;99.90
25342;DHT22;13298;48.792;9.154;2023-02-18T15:40:29;13.40;99.90
25342;DHT22;13298;48.792;9.154;2023-02-18T15:42:58;13.30;99.90
25342;DHT22;13298;48.792;9.154;2023-02-18T15:45:40;13.30;99.90
25342;DHT22;13298;48.792;9.154;2023-02-18T15:48:31;13.20;99.90
25342;DHT22;13298;48.792;9.154;2023-02-18T15:51:04;13.30;99.90
25342;DHT22;13298;48.792;9.154;2023-02-18T15:53:31;13.20;99.90
25342;DHT22;13298;48.792;9.154;2023-02-18T15:56:06;13.10;99.90
25342;DHT22;13298;48.792;9.154;2023-02-18T15:58:34;13.10;99.90
25342;DHT22;13298;48.792;9.154;2023-02-18T16:01:03;13.10;99.90
25342;DHT22;13298;48.792;9.154;2023-02-18T16:06:30;13.00;99.90
25342;DHT22;13298;48.792;9.154;2023-02-18T16:09:06;12.90;99.90
25342;DHT22;13298;48.792;9.154;2023-02-18T16:11:43;12.90;99.90
25342;DHT22;13298;48.792;9.154;2023-02-18T16:17:16;12.70;99.90
25342;DHT22;13298;48.792;9.154;2023-02-18T16:20:00;12.70;99.90
25342;DHT22;13298;48.792;9.154;2023-02-18T16:22:51;12.60;99.90
25342;DHT22;13298;48.792;9.154;2023-02-18T16:25:51;12.60;99.90
25342;DHT22;13298;48.792;9.154;2023-02-18T16:30:48;12.40;99.90
25342;DHT22;13298;48.792;9.154;2023-02-18T16:33:14;12.40;99.90
25342;DHT22;13298;48.792;9.154;2023-02-18T16:35:40;12.30;99.90
25342;DHT22;13298;48.792;9.154;2023-02-18T16:38:08;12.30;99.90
25342;DHT22;13298;48.792;9.154;2023-02-18T16:40:40;12.20;99.90
25342;DHT22;13298;48.792;9.154;2023-02-18T16:43:14;12.20;99.90
25342;DHT22;13298;48.792;9.154;2023-02-18T16:45:47;12.10;99.90
25342;DHT22;13298;48.792;9.154;2023-02-18T16:48:27;12.10;99.90
25342;DHT22;13298;48.792;9.154;2023-02-18T16:50:55;12.10;99.90
25342;DHT22;13298;48.792;9.154;2023-02-18T16:53:21;12.00;99.90
25342;DHT22;13298;48.792;9.154;2023-02-18T16:55:48;12.10;99.90
25342;DHT22;13298;48.792;9.154;2023-02-18T16:58:15;12.10;99.90
25342;DHT22;13298;48.792;9.154;2023-02-18T17:00:42;12.10;99.90
25342;DHT22;13298;48.792;9.154;2023-02-18T17:03:09;12.10;99.90
25342;DHT22;13298;48.792;9.154;2023-02-18T17:05:36;12.10;99.90
25342;DHT22;13298;48.792;9.154;2023-02-18T17:08:25;12.10;99.90
25342;DHT22;13298;48.792;9.154;2023-02-18T17:10:54;12.10;99.90
25342;DHT22;13298;48.792;9.154;2023-02-18T17:13:27;12.10;99.90
25342;DHT22;13298;48.792;9.154;2023-02-18T17:15:55;12.10;99.90
25342;DHT22;13298;48.792;9.154;2023-02-18T17:18:22;12.10;99.90
25342;DHT22;13298;48.792;9.154;2023-02-18T17:20:50;12.10;99.90
25342;DHT22;13298;48.792;9.154;2023-02-18T17:23:18;12.10;99.90
25342;DHT22;13298;48.792;9.154;2023-02-18T17:25:49;12.10;99.90
25342;DHT22;13298;48.792;9.154;2023-02-18T17:28:15;12.10;99.90
25342;DHT22;13298;48.792;9.154;2023-02-18T17:30:45;12.10;99.90
25342;DHT22;13298;48.792;9.154;2023-02-18T17:33:14;12.10;99.90
25342;DHT22;13298;48.792;9.154;2023-02-18T17:35:42;12.00;99.90
25342;DHT22;13298;48.792;9.154;2023-02-18T17:38:12;12.00;99.90
25342;DHT22;13298;48.792;9.154;2023-02-18T17:40:39;12.00;99.90
25342;DHT22;13298;48.792;9.154;2023-02-18T17:43:05;12.00;99.90
25342;DHT22;13298;48.792;9.154;2023-02-18T17:45:34;12.00;99.90
25342;DHT22;13298;48.792;9.154;2023-02-18T17:48:02;12.00;99.90
25342;DHT22;13298;48.792;9.154;2023-02-18T17:50:30;11.90;99.90
25342;DHT22;13298;48.792;9.154;2023-02-18T17:52:56;11.80;99.90
25342;DHT22;13298;48.792;9.154;2023-02-18T17:55:24;11.80;99.90
25342;DHT22;13298;48.792;9.154;2023-02-18T17:57:52;11.70;99.90
25342;DHT22;13298;48.792;9.154;2023-02-18T18:00:24;11.70;99.90
25342;DHT22;13298;48.792;9.154;2023-02-18T18:02:52;11.60;99.90
25342;DHT22;13298;48.792;9.154;2023-02-18T18:05:22;11.60;99.90